sensor_id;sensor_type;location;lat;lon;timestamp;temperature;humidity
78536;SHT31;67829;51.968;5.684;2024-03-02T00:02:07;11.0;56.8
78536;SHT31;67829;51.968;5.684;2024-03-02T00:04:35;11.0;56.8
78536;SHT31;67829;51.968;5.684;2024-03-02T00:07:06;11.0;56.9
78536;SHT31;67829;51.968;5.684;2024-03-02T00:09:35;11.0;56.8
78536;SHT31;67829;51.968;5.684;2024-03-02T00:12:06;11.0;56.7
78536;SHT31;67829;51.968;5.684;2024-03-02T00:14:35;11.0;56.5
78536;SHT31;67829;51.968;5.684;2024-03-02T00:17:04;11.0;56.5
78536;SHT31;67829;51.968;5.684;2024-03-02T00:19:32;11.0;56.7
78536;SHT31;67829;51.968;5.684;2024-03-02T00:22:02;11.1;56.6
78536;SHT31;67829;51.968;5.684;2024-03-02T00:24:34;11.1;56.7
78536;SHT31;67829;51.968;5.684;2024-03-02T00:27:04;11.1;56.8
78536;SHT31;67829;51.968;5.684;2024-03-02T00:29:35;11.1;56.7
78536;SHT31;67829;51.968;5.684;2024-03-02T00:32:03;11.1;56.7
78536;SHT31;67829;51.968;5.684;2024-03-02T00:34:35;11.1;56.8
78536;SHT31;67829;51.968;5.684;2024-03-02T00:37:04;11.1;56.8
78536;SHT31;67829;51.968;5.684;2024-03-02T00:39:34;11.1;57.4
78536;SHT31;67829;51.968;5.684;2024-03-02T00:42:05;11.1;56.9
78536;SHT31;67829;51.968;5.684;2024-03-02T00:44:34;11.1;56.9
78536;SHT31;67829;51.968;5.684;2024-03-02T00:47:05;11.1;56.7
78536;SHT31;67829;51.968;5.684;2024-03-02T00:49:35;11.1;56.8
78536;SHT31;67829;51.968;5.684;2024-03-02T00:52:07;11.1;57.0
78536;SHT31;67829;51.968;5.684;2024-03-02T00:54:37;11.1;57.2
78536;SHT31;67829;51.968;5.684;2024-03-02T00:57:05;11.1;57.2
78536;SHT31;67829;51.968;5.684;2024-03-02T00:59:34;11.2;57.5
78536;SHT31;67829;51.968;5.684;2024-03-02T01:02:03;11.2;58.8
78536;SHT31;67829;51.968;5.684;2024-03-02T01:04:33;11.2;59.1
78536;SHT31;67829;51.968;5.684;2024-03-02T01:07:01;11.2;60.0
78536;SHT31;67829;51.968;5.684;2024-03-02T01:09:30;11.2;60.2
78536;SHT31;67829;51.968;5.684;2024-03-02T01:11:58;11.1;60.9
78536;SHT31;67829;51.968;5.684;2024-03-02T01:14:27;11.1;60.9
78536;SHT31;67829;51.968;5.684;2024-03-02T01:16:55;11.1;60.8
78536;SHT31;67829;51.968;5.684;2024-03-02T01:19:24;11.1;61.0
78536;SHT31;67829;51.968;5.684;2024-03-02T01:21:53;11.1;61.3
78536;SHT31;67829;51.968;5.684;2024-03-02T01:24:21;11.1;61.3
78536;SHT31;67829;51.968;5.684;2024-03-02T01:26:50;11.1;61.3
78536;SHT31;67829;51.968;5.684;2024-03-02T01:29:19;11.1;61.6
78536;SHT31;67829;51.968;5.684;2024-03-02T01:31:47;11.1;62.0
78536;SHT31;67829;51.968;5.684;2024-03-02T01:34:17;11.1;61.8
78536;SHT31;67829;51.968;5.684;2024-03-02T01:36:46;11.1;61.6
78536;SHT31;67829;51.968;5.684;2024-03-02T01:39:15;11.1;61.9
78536;SHT31;67829;51.968;5.684;2024-03-02T01:41:43;11.1;61.7
78536;SHT31;67829;51.968;5.684;2024-03-02T01:44:12;11.1;62.2
78536;SHT31;67829;51.968;5.684;2024-03-02T01:46:40;11.1;62.1
78536;SHT31;67829;51.968;5.684;2024-03-02T01:49:11;11.1;62.1
78536;SHT31;67829;51.968;5.684;2024-03-02T01:51:41;11.0;62.0
78536;SHT31;67829;51.968;5.684;2024-03-02T01:54:10;11.0;62.0
78536;SHT31;67829;51.968;5.684;2024-03-02T01:56:39;11.0;62.0
78536;SHT31;67829;51.968;5.684;2024-03-02T01:59:08;11.0;62.2
78536;SHT31;67829;51.968;5.684;2024-03-02T02:01:37;11.0;62.1
78536;SHT31;67829;51.968;5.684;2024-03-02T02:04:05;11.0;62.3
78536;SHT31;67829;51.968;5.684;2024-03-02T02:06:34;11.0;62.3
78536;SHT31;67829;51.968;5.684;2024-03-02T02:09:03;11.0;62.3
78536;SHT31;67829;51.968;5.684;2024-03-02T02:11:32;10.9;62.3
78536;SHT31;67829;51.968;5.684;2024-03-02T02:14:00;10.9;62.3
78536;SHT31;67829;51.968;5.684;2024-03-02T02:16:29;10.9;62.3
78536;SHT31;67829;51.968;5.684;2024-03-02T02:18:57;10.9;62.3
78536;SHT31;67829;51.968;5.684;2024-03-02T02:21:25;10.9;62.4
78536;SHT31;67829;51.968;5.684;2024-03-02T02:23:54;10.9;62.3
78536;SHT31;67829;51.968;5.684;2024-03-02T02:26:23;10.9;62.3
78536;SHT31;67829;51.968;5.684;2024-03-02T02:28:52;10.9;62.3
78536;SHT31;67829;51.968;5.684;2024-03-02T02:31:20;10.9;62.4
78536;SHT31;67829;51.968;5.684;2024-03-02T02:33:49;10.9;62.5
78536;SHT31;67829;51.968;5.684;2024-03-02T02:36:17;10.9;62.4
78536;SHT31;67829;51.968;5.684;2024-03-02T02:38:49;10.9;62.7
78536;SHT31;67829;51.968;5.684;2024-03-02T02:41:18;10.9;62.9
78536;SHT31;67829;51.968;5.684;2024-03-02T02:43:46;10.9;63.4
78536;SHT31;67829;51.968;5.684;2024-03-02T02:46:14;10.9;63.8
78536;SHT31;67829;51.968;5.684;2024-03-02T02:48:43;10.9;64.0
78536;SHT31;67829;51.968;5.684;2024-03-02T02:51:11;10.9;63.9
78536;SHT31;67829;51.968;5.684;2024-03-02T02:53:40;10.8;63.7
78536;SHT31;67829;51.968;5.684;2024-03-02T02:56:09;10.8;63.8
78536;SHT31;67829;51.968;5.684;2024-03-02T02:58:39;10.8;64.0
78536;SHT31;67829;51.968;5.684;2024-03-02T03:01:08;10.8;64.2
78536;SHT31;67829;51.968;5.684;2024-03-02T03:03:39;10.8;64.3
78536;SHT31;67829;51.968;5.684;2024-03-02T03:06:09;10.7;64.4
78536;SHT31;67829;51.968;5.684;2024-03-02T03:08:38;10.7;64.7
78536;SHT31;67829;51.968;5.684;2024-03-02T03:11:07;10.7;64.6
78536;SHT31;67829;51.968;5.684;2024-03-02T03:13:35;10.6;64.6
78536;SHT31;67829;51.968;5.684;2024-03-02T03:16:05;10.6;64.8
78536;SHT31;67829;51.968;5.684;2024-03-02T03:18:33;10.6;64.9
78536;SHT31;67829;51.968;5.684;2024-03-02T03:21:02;10.5;65.2
78536;SHT31;67829;51.968;5.684;2024-03-02T03:23:31;10.5;65.3
78536;SHT31;67829;51.968;5.684;2024-03-02T03:26:00;10.5;65.8
78536;SHT31;67829;51.968;5.684;2024-03-02T03:28:29;10.4;65.3
78536;SHT31;67829;51.968;5.684;2024-03-02T03:30:58;10.4;65.1
78536;SHT31;67829;51.968;5.684;2024-03-02T03:33:26;10.4;65.2
78536;SHT31;67829;51.968;5.684;2024-03-02T03:35:55;10.4;65.2
78536;SHT31;67829;51.968;5.684;2024-03-02T03:38:23;10.3;65.2
78536;SHT31;67829;51.968;5.684;2024-03-02T03:40:52;10.3;65.4
78536;SHT31;67829;51.968;5.684;2024-03-02T03:43:20;10.3;65.4
78536;SHT31;67829;51.968;5.684;2024-03-02T03:45:48;10.3;65.6
78536;SHT31;67829;51.968;5.684;2024-03-02T03:48:17;10.3;65.4
78536;SHT31;67829;51.968;5.684;2024-03-02T03:50:49;10.3;65.5
78536;SHT31;67829;51.968;5.684;2024-03-02T03:53:17;10.3;65.3
78536;SHT31;67829;51.968;5.684;2024-03-02T03:55:46;10.3;65.2
78536;SHT31;67829;51.968;5.684;2024-03-02T03:58:15;10.3;65.4
78536;SHT31;67829;51.968;5.684;2024-03-02T04:00:47;10.2;65.2
78536;SHT31;67829;51.968;5.684;2024-03-02T04:03:15;10.2;65.5
78536;SHT31;67829;51.968;5.684;2024-03-02T04:05:44;10.2;65.3
78536;SHT31;67829;51.968;5.684;2024-03-02T04:08:12;10.2;65.9
78536;SHT31;67829;51.968;5.684;2024-03-02T04:10:41;10.2;65.6
78536;SHT31;67829;51.968;5.684;2024-03-02T04:13:09;10.2;65.7
78536;SHT31;67829;51.968;5.684;2024-03-02T04:15:38;10.2;65.2
78536;SHT31;67829;51.968;5.684;2024-03-02T04:18:06;10.2;64.9
78536;SHT31;67829;51.968;5.684;2024-03-02T04:20:35;10.2;65.0
78536;SHT31;67829;51.968;5.684;2024-03-02T04:23:04;10.2;64.6
78536;SHT31;67829;51.968;5.684;2024-03-02T04:25:34;10.2;65.1
78536;SHT31;67829;51.968;5.684;2024-03-02T04:28:03;10.2;65.0
78536;SHT31;67829;51.968;5.684;2024-03-02T04:30:32;10.2;65.3
78536;SHT31;67829;51.968;5.684;2024-03-02T04:33:00;10.2;65.3
78536;SHT31;67829;51.968;5.684;2024-03-02T04:35:30;10.2;65.1
78536;SHT31;67829;51.968;5.684;2024-03-02T04:37:58;10.2;64.9
78536;SHT31;67829;51.968;5.684;2024-03-02T04:40:27;10.2;64.7
78536;SHT31;67829;51.968;5.684;2024-03-02T04:42:56;10.2;64.4
78536;SHT31;67829;51.968;5.684;2024-03-02T04:45:25;10.2;64.5
78536;SHT31;67829;51.968;5.684;2024-03-02T04:47:56;10.2;64.6
78536;SHT31;67829;51.968;5.684;2024-03-02T04:50:25;10.1;64.1
78536;SHT31;67829;51.968;5.684;2024-03-02T04:52:53;10.1;64.2
78536;SHT31;67829;51.968;5.684;2024-03-02T04:55:22;10.1;64.2
78536;SHT31;67829;51.968;5.684;2024-03-02T04:58:10;10.1;64.2
78536;SHT31;67829;51.968;5.684;2024-03-02T05:00:39;10.1;64.1
78536;SHT31;67829;51.968;5.684;2024-03-02T05:03:09;10.1;64.3
78536;SHT31;67829;51.968;5.684;2024-03-02T05:05:37;10.1;64.6
78536;SHT31;67829;51.968;5.684;2024-03-02T05:08:06;10.1;64.5
78536;SHT31;67829;51.968;5.684;2024-03-02T05:10:35;10.1;64.4
78536;SHT31;67829;51.968;5.684;2024-03-02T05:13:04;10.1;64.4
78536;SHT31;67829;51.968;5.684;2024-03-02T05:15:32;10.1;64.2
78536;SHT31;67829;51.968;5.684;2024-03-02T05:18:03;10.0;64.1
78536;SHT31;67829;51.968;5.684;2024-03-02T05:20:32;10.0;64.2
78536;SHT31;67829;51.968;5.684;2024-03-02T05:23:01;10.0;64.2
78536;SHT31;67829;51.968;5.684;2024-03-02T05:25:31;9.9;64.2
78536;SHT31;67829;51.968;5.684;2024-03-02T05:28:01;9.9;64.2
78536;SHT31;67829;51.968;5.684;2024-03-02T05:30:30;9.9;64.3
78536;SHT31;67829;51.968;5.684;2024-03-02T05:32:58;9.8;64.5
78536;SHT31;67829;51.968;5.684;2024-03-02T05:35:29;9.8;64.8
78536;SHT31;67829;51.968;5.684;2024-03-02T05:37:59;9.8;64.8
78536;SHT31;67829;51.968;5.684;2024-03-02T05:40:27;9.8;64.8
78536;SHT31;67829;51.968;5.684;2024-03-02T05:42:56;9.8;65.2
78536;SHT31;67829;51.968;5.684;2024-03-02T05:45:24;9.7;65.1
78536;SHT31;67829;51.968;5.684;2024-03-02T05:47:53;9.7;65.3
78536;SHT31;67829;51.968;5.684;2024-03-02T05:50:21;9.7;65.5
78536;SHT31;67829;51.968;5.684;2024-03-02T05:52:50;9.8;65.3
78536;SHT31;67829;51.968;5.684;2024-03-02T05:55:18;9.8;65.4
78536;SHT31;67829;51.968;5.684;2024-03-02T05:57:46;9.8;65.5
78536;SHT31;67829;51.968;5.684;2024-03-02T06:00:21;9.8;64.6
78536;SHT31;67829;51.968;5.684;2024-03-02T06:02:49;9.8;64.0
78536;SHT31;67829;51.968;5.684;2024-03-02T06:05:17;9.8;63.8
78536;SHT31;67829;51.968;5.684;2024-03-02T06:07:46;9.8;63.4
78536;SHT31;67829;51.968;5.684;2024-03-02T06:10:15;9.8;63.4
78536;SHT31;67829;51.968;5.684;2024-03-02T06:12:44;9.8;63.1
78536;SHT31;67829;51.968;5.684;2024-03-02T06:15:12;9.8;62.9
78536;SHT31;67829;51.968;5.684;2024-03-02T06:17:43;9.8;62.4
78536;SHT31;67829;51.968;5.684;2024-03-02T06:20:12;9.8;62.4
78536;SHT31;67829;51.968;5.684;2024-03-02T06:22:41;9.8;62.4
78536;SHT31;67829;51.968;5.684;2024-03-02T06:25:09;9.7;62.7
78536;SHT31;67829;51.968;5.684;2024-03-02T06:27:38;9.7;62.9
78536;SHT31;67829;51.968;5.684;2024-03-02T06:30:10;9.6;63.1
78536;SHT31;67829;51.968;5.684;2024-03-02T06:32:39;9.6;63.3
78536;SHT31;67829;51.968;5.684;2024-03-02T06:35:08;9.5;63.8
78536;SHT31;67829;51.968;5.684;2024-03-02T06:37:39;9.5;63.8
78536;SHT31;67829;51.968;5.684;2024-03-02T06:40:10;9.5;64.0
78536;SHT31;67829;51.968;5.684;2024-03-02T06:42:39;9.5;64.3
78536;SHT31;67829;51.968;5.684;2024-03-02T06:45:08;9.5;64.8
78536;SHT31;67829;51.968;5.684;2024-03-02T06:47:37;9.5;64.6
78536;SHT31;67829;51.968;5.684;2024-03-02T06:50:06;9.5;64.1
78536;SHT31;67829;51.968;5.684;2024-03-02T06:52:36;9.5;63.8
78536;SHT31;67829;51.968;5.684;2024-03-02T06:55:06;9.5;63.6
78536;SHT31;67829;51.968;5.684;2024-03-02T06:57:35;9.5;63.5
78536;SHT31;67829;51.968;5.684;2024-03-02T07:00:04;9.5;63.5
78536;SHT31;67829;51.968;5.684;2024-03-02T07:02:35;9.4;63.3
78536;SHT31;67829;51.968;5.684;2024-03-02T07:05:04;9.4;63.4
78536;SHT31;67829;51.968;5.684;2024-03-02T07:07:34;9.4;63.2
78536;SHT31;67829;51.968;5.684;2024-03-02T07:10:03;9.4;63.7
78536;SHT31;67829;51.968;5.684;2024-03-02T07:12:34;9.4;63.5
78536;SHT31;67829;51.968;5.684;2024-03-02T07:15:02;9.4;63.9
78536;SHT31;67829;51.968;5.684;2024-03-02T07:17:44;9.4;64.1
78536;SHT31;67829;51.968;5.684;2024-03-02T07:20:13;9.3;64.2
78536;SHT31;67829;51.968;5.684;2024-03-02T07:22:42;9.3;64.3
78536;SHT31;67829;51.968;5.684;2024-03-02T07:25:10;9.3;64.3
78536;SHT31;67829;51.968;5.684;2024-03-02T07:27:39;9.3;64.5
78536;SHT31;67829;51.968;5.684;2024-03-02T07:30:13;9.3;64.6
78536;SHT31;67829;51.968;5.684;2024-03-02T07:32:42;9.3;64.8
78536;SHT31;67829;51.968;5.684;2024-03-02T07:35:13;9.3;64.8
78536;SHT31;67829;51.968;5.684;2024-03-02T07:37:43;9.4;64.8
78536;SHT31;67829;51.968;5.684;2024-03-02T07:40:12;9.4;64.7
78536;SHT31;67829;51.968;5.684;2024-03-02T07:42:42;9.4;64.6
78536;SHT31;67829;51.968;5.684;2024-03-02T07:45:10;9.4;64.6
78536;SHT31;67829;51.968;5.684;2024-03-02T07:47:39;9.4;64.8
78536;SHT31;67829;51.968;5.684;2024-03-02T07:50:08;9.5;64.9
78536;SHT31;67829;51.968;5.684;2024-03-02T07:52:37;9.5;65.1
78536;SHT31;67829;51.968;5.684;2024-03-02T07:55:09;9.6;65.2
78536;SHT31;67829;51.968;5.684;2024-03-02T07:57:37;9.6;65.1
78536;SHT31;67829;51.968;5.684;2024-03-02T08:00:08;9.7;65.0
78536;SHT31;67829;51.968;5.684;2024-03-02T08:02:37;9.7;65.0
78536;SHT31;67829;51.968;5.684;2024-03-02T08:05:07;9.8;64.8
78536;SHT31;67829;51.968;5.684;2024-03-02T08:07:36;9.8;64.9
78536;SHT31;67829;51.968;5.684;2024-03-02T08:10:06;9.9;64.6
78536;SHT31;67829;51.968;5.684;2024-03-02T08:12:35;10.0;64.5
78536;SHT31;67829;51.968;5.684;2024-03-02T08:15:04;10.0;63.9
78536;SHT31;67829;51.968;5.684;2024-03-02T08:17:33;10.1;64.1
78536;SHT31;67829;51.968;5.684;2024-03-02T08:20:01;10.1;63.6
78536;SHT31;67829;51.968;5.684;2024-03-02T08:22:30;10.1;63.5
78536;SHT31;67829;51.968;5.684;2024-03-02T08:24:58;10.2;63.6
78536;SHT31;67829;51.968;5.684;2024-03-02T08:27:27;10.2;62.6
78536;SHT31;67829;51.968;5.684;2024-03-02T08:29:55;10.2;63.0
78536;SHT31;67829;51.968;5.684;2024-03-02T08:32:23;10.2;62.4
78536;SHT31;67829;51.968;5.684;2024-03-02T08:34:53;10.3;61.5
78536;SHT31;67829;51.968;5.684;2024-03-02T08:37:21;10.3;61.2
78536;SHT31;67829;51.968;5.684;2024-03-02T08:39:50;10.3;60.7
78536;SHT31;67829;51.968;5.684;2024-03-02T08:42:18;10.3;61.0
78536;SHT31;67829;51.968;5.684;2024-03-02T08:44:47;10.3;61.1
78536;SHT31;67829;51.968;5.684;2024-03-02T08:47:16;10.3;61.3
78536;SHT31;67829;51.968;5.684;2024-03-02T08:49:45;10.3;61.7
78536;SHT31;67829;51.968;5.684;2024-03-02T08:52:13;10.3;61.4
78536;SHT31;67829;51.968;5.684;2024-03-02T08:54:42;10.3;61.0
78536;SHT31;67829;51.968;5.684;2024-03-02T08:57:10;10.3;61.5
78536;SHT31;67829;51.968;5.684;2024-03-02T08:59:39;10.3;61.5
78536;SHT31;67829;51.968;5.684;2024-03-02T09:02:08;10.3;61.1
78536;SHT31;67829;51.968;5.684;2024-03-02T09:04:37;10.3;60.7
78536;SHT31;67829;51.968;5.684;2024-03-02T09:07:06;10.3;60.6
78536;SHT31;67829;51.968;5.684;2024-03-02T09:09:34;10.3;60.7
78536;SHT31;67829;51.968;5.684;2024-03-02T09:12:05;10.4;60.5
78536;SHT31;67829;51.968;5.684;2024-03-02T09:14:35;10.4;60.2
78536;SHT31;67829;51.968;5.684;2024-03-02T09:17:05;10.4;60.6
78536;SHT31;67829;51.968;5.684;2024-03-02T09:19:34;10.4;59.7
78536;SHT31;67829;51.968;5.684;2024-03-02T09:22:03;10.5;60.3
78536;SHT31;67829;51.968;5.684;2024-03-02T09:24:33;10.5;60.3
78536;SHT31;67829;51.968;5.684;2024-03-02T09:27:01;10.6;60.1
78536;SHT31;67829;51.968;5.684;2024-03-02T09:29:30;10.6;60.1
78536;SHT31;67829;51.968;5.684;2024-03-02T09:32:01;10.7;59.7
78536;SHT31;67829;51.968;5.684;2024-03-02T09:34:29;10.7;59.1
78536;SHT31;67829;51.968;5.684;2024-03-02T09:36:58;10.7;58.8
78536;SHT31;67829;51.968;5.684;2024-03-02T09:39:27;10.8;59.0
78536;SHT31;67829;51.968;5.684;2024-03-02T09:41:58;10.8;59.1
78536;SHT31;67829;51.968;5.684;2024-03-02T09:44:27;10.9;59.0
78536;SHT31;67829;51.968;5.684;2024-03-02T09:46:56;10.9;59.1
78536;SHT31;67829;51.968;5.684;2024-03-02T09:49:25;11.0;58.8
78536;SHT31;67829;51.968;5.684;2024-03-02T09:51:53;11.0;58.3
78536;SHT31;67829;51.968;5.684;2024-03-02T09:54:22;11.0;58.1
78536;SHT31;67829;51.968;5.684;2024-03-02T09:56:51;11.1;57.9
78536;SHT31;67829;51.968;5.684;2024-03-02T09:59:19;11.1;58.4
78536;SHT31;67829;51.968;5.684;2024-03-02T10:02:02;11.1;58.0
78536;SHT31;67829;51.968;5.684;2024-03-02T10:04:34;11.2;58.1
78536;SHT31;67829;51.968;5.684;2024-03-02T10:07:15;11.2;58.0
78536;SHT31;67829;51.968;5.684;2024-03-02T10:09:45;11.3;57.7
78536;SHT31;67829;51.968;5.684;2024-03-02T10:12:16;11.3;57.9
78536;SHT31;67829;51.968;5.684;2024-03-02T10:14:45;11.4;57.4
78536;SHT31;67829;51.968;5.684;2024-03-02T10:17:17;11.4;56.3
78536;SHT31;67829;51.968;5.684;2024-03-02T10:19:46;11.5;55.8
78536;SHT31;67829;51.968;5.684;2024-03-02T10:22:14;11.5;56.7
78536;SHT31;67829;51.968;5.684;2024-03-02T10:24:44;11.6;56.5
78536;SHT31;67829;51.968;5.684;2024-03-02T10:27:16;11.6;55.1
78536;SHT31;67829;51.968;5.684;2024-03-02T10:29:46;11.6;54.8
78536;SHT31;67829;51.968;5.684;2024-03-02T10:32:16;11.7;54.3
78536;SHT31;67829;51.968;5.684;2024-03-02T10:34:46;11.7;55.7
78536;SHT31;67829;51.968;5.684;2024-03-02T10:37:18;11.7;55.1
78536;SHT31;67829;51.968;5.684;2024-03-02T10:39:48;11.8;54.3
78536;SHT31;67829;51.968;5.684;2024-03-02T10:42:21;11.8;55.0
78536;SHT31;67829;51.968;5.684;2024-03-02T10:44:52;11.8;54.6
78536;SHT31;67829;51.968;5.684;2024-03-02T10:47:23;11.9;53.9
78536;SHT31;67829;51.968;5.684;2024-03-02T10:49:56;11.9;55.7
78536;SHT31;67829;51.968;5.684;2024-03-02T10:52:27;12.0;55.7
78536;SHT31;67829;51.968;5.684;2024-03-02T10:54:56;12.0;55.5
78536;SHT31;67829;51.968;5.684;2024-03-02T10:57:27;12.1;55.2
78536;SHT31;67829;51.968;5.684;2024-03-02T11:00:02;12.1;54.3
78536;SHT31;67829;51.968;5.684;2024-03-02T11:02:34;12.1;54.7
78536;SHT31;67829;51.968;5.684;2024-03-02T11:05:06;12.2;53.7
78536;SHT31;67829;51.968;5.684;2024-03-02T11:07:37;12.2;53.3
78536;SHT31;67829;51.968;5.684;2024-03-02T11:10:08;12.3;54.6
78536;SHT31;67829;51.968;5.684;2024-03-02T11:12:41;12.3;53.6
78536;SHT31;67829;51.968;5.684;2024-03-02T11:15:18;12.3;53.5
78536;SHT31;67829;51.968;5.684;2024-03-02T11:17:48;12.4;54.0
78536;SHT31;67829;51.968;5.684;2024-03-02T11:20:20;12.4;53.2
78536;SHT31;67829;51.968;5.684;2024-03-02T11:22:52;12.4;52.0
78536;SHT31;67829;51.968;5.684;2024-03-02T11:25:27;12.5;51.2
78536;SHT31;67829;51.968;5.684;2024-03-02T11:28:05;12.5;51.0
78536;SHT31;67829;51.968;5.684;2024-03-02T11:30:52;12.6;51.3
78536;SHT31;67829;51.968;5.684;2024-03-02T11:33:27;12.6;50.8
78536;SHT31;67829;51.968;5.684;2024-03-02T11:35:57;12.6;50.8
78536;SHT31;67829;51.968;5.684;2024-03-02T11:38:31;12.6;51.1
78536;SHT31;67829;51.968;5.684;2024-03-02T11:41:02;12.7;50.6
78536;SHT31;67829;51.968;5.684;2024-03-02T11:43:31;12.7;49.5
78536;SHT31;67829;51.968;5.684;2024-03-02T11:46:03;12.7;49.8
78536;SHT31;67829;51.968;5.684;2024-03-02T11:48:35;12.8;49.7
78536;SHT31;67829;51.968;5.684;2024-03-02T11:51:05;12.8;50.7
78536;SHT31;67829;51.968;5.684;2024-03-02T11:53:35;12.8;50.4
78536;SHT31;67829;51.968;5.684;2024-03-02T11:56:12;12.9;49.9
78536;SHT31;67829;51.968;5.684;2024-03-02T11:58:43;12.9;49.9
78536;SHT31;67829;51.968;5.684;2024-03-02T12:01:14;12.9;49.1
78536;SHT31;67829;51.968;5.684;2024-03-02T12:03:43;13.0;49.0
78536;SHT31;67829;51.968;5.684;2024-03-02T12:06:12;13.0;49.7
78536;SHT31;67829;51.968;5.684;2024-03-02T12:08:41;13.1;49.9
78536;SHT31;67829;51.968;5.684;2024-03-02T12:11:13;13.1;50.4
78536;SHT31;67829;51.968;5.684;2024-03-02T12:13:55;13.2;50.6
78536;SHT31;67829;51.968;5.684;2024-03-02T12:16:26;13.2;49.5
78536;SHT31;67829;51.968;5.684;2024-03-02T12:18:55;13.3;49.0
78536;SHT31;67829;51.968;5.684;2024-03-02T12:21:24;13.3;49.0
78536;SHT31;67829;51.968;5.684;2024-03-02T12:23:53;13.4;49.0
78536;SHT31;67829;51.968;5.684;2024-03-02T12:26:23;13.5;48.2
78536;SHT31;67829;51.968;5.684;2024-03-02T12:28:52;13.5;48.7
78536;SHT31;67829;51.968;5.684;2024-03-02T12:31:21;13.6;48.9
78536;SHT31;67829;51.968;5.684;2024-03-02T12:33:51;13.7;48.6
78536;SHT31;67829;51.968;5.684;2024-03-02T12:36:19;13.8;48.1
78536;SHT31;67829;51.968;5.684;2024-03-02T12:38:48;13.8;48.1
78536;SHT31;67829;51.968;5.684;2024-03-02T12:41:17;13.9;47.4
78536;SHT31;67829;51.968;5.684;2024-03-02T12:43:45;13.9;47.1
78536;SHT31;67829;51.968;5.684;2024-03-02T12:46:14;14.0;47.5
78536;SHT31;67829;51.968;5.684;2024-03-02T12:48:44;14.0;46.9
78536;SHT31;67829;51.968;5.684;2024-03-02T12:51:16;14.0;47.3
78536;SHT31;67829;51.968;5.684;2024-03-02T12:53:45;14.1;46.9
78536;SHT31;67829;51.968;5.684;2024-03-02T12:56:14;14.1;47.2
78536;SHT31;67829;51.968;5.684;2024-03-02T12:58:43;14.1;47.5
78536;SHT31;67829;51.968;5.684;2024-03-02T13:01:15;14.1;47.9
78536;SHT31;67829;51.968;5.684;2024-03-02T13:03:47;14.1;47.3
78536;SHT31;67829;51.968;5.684;2024-03-02T13:06:17;14.1;47.9
78536;SHT31;67829;51.968;5.684;2024-03-02T13:08:46;14.1;47.4
78536;SHT31;67829;51.968;5.684;2024-03-02T13:11:18;14.1;47.9
78536;SHT31;67829;51.968;5.684;2024-03-02T13:13:47;14.1;47.1
78536;SHT31;67829;51.968;5.684;2024-03-02T13:16:15;14.2;46.8
78536;SHT31;67829;51.968;5.684;2024-03-02T13:18:48;14.2;47.3
78536;SHT31;67829;51.968;5.684;2024-03-02T13:21:20;14.2;46.8
78536;SHT31;67829;51.968;5.684;2024-03-02T13:23:48;14.2;46.2
78536;SHT31;67829;51.968;5.684;2024-03-02T13:26:17;14.3;46.4
78536;SHT31;67829;51.968;5.684;2024-03-02T13:28:45;14.3;46.8
78536;SHT31;67829;51.968;5.684;2024-03-02T13:31:14;14.3;46.7
78536;SHT31;67829;51.968;5.684;2024-03-02T13:33:42;14.3;45.8
78536;SHT31;67829;51.968;5.684;2024-03-02T13:36:11;14.3;47.1
78536;SHT31;67829;51.968;5.684;2024-03-02T13:38:40;14.3;46.4
78536;SHT31;67829;51.968;5.684;2024-03-02T13:41:08;14.4;46.5
78536;SHT31;67829;51.968;5.684;2024-03-02T13:43:38;14.4;46.1
78536;SHT31;67829;51.968;5.684;2024-03-02T13:46:07;14.4;46.7
78536;SHT31;67829;51.968;5.684;2024-03-02T13:48:36;14.4;46.7
78536;SHT31;67829;51.968;5.684;2024-03-02T13:51:05;14.4;46.9
78536;SHT31;67829;51.968;5.684;2024-03-02T13:53:35;14.5;46.8
78536;SHT31;67829;51.968;5.684;2024-03-02T13:56:05;14.5;46.2
78536;SHT31;67829;51.968;5.684;2024-03-02T13:58:34;14.5;47.3
78536;SHT31;67829;51.968;5.684;2024-03-02T14:01:04;14.6;46.0
78536;SHT31;67829;51.968;5.684;2024-03-02T14:03:33;14.6;46.5
78536;SHT31;67829;51.968;5.684;2024-03-02T14:06:01;14.6;47.6
78536;SHT31;67829;51.968;5.684;2024-03-02T14:08:31;14.7;46.9
78536;SHT31;67829;51.968;5.684;2024-03-02T14:11:00;14.7;46.9
78536;SHT31;67829;51.968;5.684;2024-03-02T14:13:31;14.8;45.5
78536;SHT31;67829;51.968;5.684;2024-03-02T14:15:59;14.8;46.0
78536;SHT31;67829;51.968;5.684;2024-03-02T14:18:28;14.8;46.0
78536;SHT31;67829;51.968;5.684;2024-03-02T14:20:56;14.9;45.7
78536;SHT31;67829;51.968;5.684;2024-03-02T14:23:25;14.9;46.4
78536;SHT31;67829;51.968;5.684;2024-03-02T14:25:56;14.9;45.2
78536;SHT31;67829;51.968;5.684;2024-03-02T14:28:26;14.9;45.9
78536;SHT31;67829;51.968;5.684;2024-03-02T14:30:54;14.9;44.9
78536;SHT31;67829;51.968;5.684;2024-03-02T14:33:23;14.9;44.6
78536;SHT31;67829;51.968;5.684;2024-03-02T14:35:53;14.9;45.7
78536;SHT31;67829;51.968;5.684;2024-03-02T14:38:22;14.9;45.6
78536;SHT31;67829;51.968;5.684;2024-03-02T14:40:51;14.9;46.0
78536;SHT31;67829;51.968;5.684;2024-03-02T14:43:20;14.9;46.2
78536;SHT31;67829;51.968;5.684;2024-03-02T14:45:49;14.9;45.9
78536;SHT31;67829;51.968;5.684;2024-03-02T14:48:18;14.9;46.2
78536;SHT31;67829;51.968;5.684;2024-03-02T14:50:47;14.8;46.0
78536;SHT31;67829;51.968;5.684;2024-03-02T14:53:16;14.8;46.2
78536;SHT31;67829;51.968;5.684;2024-03-02T14:55:44;14.8;46.9
78536;SHT31;67829;51.968;5.684;2024-03-02T14:58:13;14.8;46.7
78536;SHT31;67829;51.968;5.684;2024-03-02T15:00:42;14.8;46.0
78536;SHT31;67829;51.968;5.684;2024-03-02T15:03:11;14.8;45.7
78536;SHT31;67829;51.968;5.684;2024-03-02T15:05:39;14.8;46.1
78536;SHT31;67829;51.968;5.684;2024-03-02T15:08:11;14.7;46.0
78536;SHT31;67829;51.968;5.684;2024-03-02T15:10:47;14.7;46.5
78536;SHT31;67829;51.968;5.684;2024-03-02T15:13:16;14.7;46.9
78536;SHT31;67829;51.968;5.684;2024-03-02T15:15:45;14.7;47.1
78536;SHT31;67829;51.968;5.684;2024-03-02T15:18:13;14.7;47.2
78536;SHT31;67829;51.968;5.684;2024-03-02T15:20:42;14.7;47.7
78536;SHT31;67829;51.968;5.684;2024-03-02T15:23:10;14.8;48.0
78536;SHT31;67829;51.968;5.684;2024-03-02T15:25:39;14.8;48.3
78536;SHT31;67829;51.968;5.684;2024-03-02T15:28:08;14.8;48.6
78536;SHT31;67829;51.968;5.684;2024-03-02T15:30:38;14.8;48.7
78536;SHT31;67829;51.968;5.684;2024-03-02T15:33:08;14.8;48.4
78536;SHT31;67829;51.968;5.684;2024-03-02T15:35:36;14.8;48.3
78536;SHT31;67829;51.968;5.684;2024-03-02T15:38:05;14.8;48.2
78536;SHT31;67829;51.968;5.684;2024-03-02T15:40:35;14.8;48.3
78536;SHT31;67829;51.968;5.684;2024-03-02T15:43:05;14.7;48.5
78536;SHT31;67829;51.968;5.684;2024-03-02T15:45:34;14.7;48.4
78536;SHT31;67829;51.968;5.684;2024-03-02T15:48:02;14.7;49.1
78536;SHT31;67829;51.968;5.684;2024-03-02T15:50:31;14.7;49.3
78536;SHT31;67829;51.968;5.684;2024-03-02T15:53:13;14.7;49.9
78536;SHT31;67829;51.968;5.684;2024-03-02T15:55:42;14.7;49.7
78536;SHT31;67829;51.968;5.684;2024-03-02T15:58:10;14.7;50.5
78536;SHT31;67829;51.968;5.684;2024-03-02T16:00:39;14.7;50.5
78536;SHT31;67829;51.968;5.684;2024-03-02T16:03:08;14.7;50.8
78536;SHT31;67829;51.968;5.684;2024-03-02T16:05:36;14.7;51.1
78536;SHT31;67829;51.968;5.684;2024-03-02T16:08:06;14.8;50.9
78536;SHT31;67829;51.968;5.684;2024-03-02T16:10:34;14.8;50.8
78536;SHT31;67829;51.968;5.684;2024-03-02T16:13:03;14.9;50.7
78536;SHT31;67829;51.968;5.684;2024-03-02T16:15:32;14.9;50.2
78536;SHT31;67829;51.968;5.684;2024-03-02T16:18:01;15.0;50.4
78536;SHT31;67829;51.968;5.684;2024-03-02T16:20:30;15.0;50.3